createdAt,value
2024-02-28T00:02:11.121Z,9.35
2024-02-28T00:04:38.590Z,9.63
2024-02-28T00:07:05.932Z,10.15
2024-02-28T00:09:33.381Z,9.93
2024-02-28T00:12:00.816Z,10.63
2024-02-28T00:14:28.187Z,10.27
2024-02-28T00:16:55.572Z,9.95
2024-02-28T00:19:26.331Z,9.70
2024-02-28T00:21:53.787Z,10.05
2024-02-28T00:24:21.204Z,10.23
2024-02-28T00:26:48.602Z,9.90
2024-02-28T00:29:15.997Z,9.98
2024-02-28T00:31:43.465Z,9.57
2024-02-28T00:34:09.971Z,10.13
2024-02-28T00:36:48.349Z,9.63
2024-02-28T00:39:22.847Z,10.40
2024-02-28T00:41:50.343Z,10.20
2024-02-28T00:44:17.728Z,10.05
2024-02-28T00:46:45.090Z,9.60
2024-02-28T00:49:12.469Z,10.57
2024-02-28T00:51:41.245Z,10.07
2024-02-28T00:54:09.429Z,10.73
2024-02-28T00:56:36.803Z,10.38
2024-02-28T00:59:04.216Z,9.98
2024-02-28T01:01:31.645Z,10.52
2024-02-28T01:03:59.099Z,10.35
2024-02-28T01:06:26.556Z,10.63
2024-02-28T01:08:55.280Z,10.52
2024-02-28T01:11:22.807Z,10.45
2024-02-28T01:13:50.213Z,10.70
2024-02-28T01:16:17.683Z,11.32
2024-02-28T01:18:45.217Z,10.55
2024-02-28T01:21:12.661Z,12.23
2024-02-28T01:23:40.083Z,12.18
2024-02-28T01:26:08.907Z,15.30
2024-02-28T01:28:36.272Z,14.70
2024-02-28T01:31:03.969Z,14.15
2024-02-28T01:33:31.355Z,13.95
2024-02-28T01:35:59.969Z,13.15
2024-02-28T01:38:27.871Z,13.77
2024-02-28T01:40:55.246Z,13.60
2024-02-28T01:43:23.946Z,12.80
2024-02-28T01:45:52.174Z,12.80
2024-02-28T01:48:19.767Z,13.13
2024-02-28T01:50:48.782Z,13.63
2024-02-28T01:53:18.256Z,13.20
2024-02-28T01:55:46.728Z,13.70
2024-02-28T01:58:14.101Z,13.57
2024-02-28T02:00:43.710Z,12.82
2024-02-28T02:03:11.254Z,13.20
2024-02-28T02:05:38.757Z,13.18
2024-02-28T02:08:06.591Z,12.68
2024-02-28T02:10:34.019Z,12.98
2024-02-28T02:13:06.061Z,11.45
2024-02-28T02:15:33.618Z,11.82
2024-02-28T02:18:02.468Z,10.95
2024-02-28T02:20:32.481Z,12.98
2024-02-28T02:23:01.656Z,12.20
2024-02-28T02:25:29.034Z,11.45
2024-02-28T02:27:56.415Z,11.70
2024-02-28T02:30:23.806Z,11.80
2024-02-28T02:32:51.251Z,12.32
2024-02-28T02:35:18.644Z,11.88
2024-02-28T02:37:49.069Z,11.07
2024-02-28T02:40:17.793Z,11.30
2024-02-28T02:42:45.372Z,12.27
2024-02-28T02:45:12.823Z,11.95
2024-02-28T02:47:40.287Z,11.77
2024-02-28T02:50:08.060Z,12.20
2024-02-28T02:52:35.435Z,11.45
2024-02-28T02:55:02.786Z,12.73
2024-02-28T02:57:31.803Z,11.90
2024-02-28T02:59:59.184Z,11.83
2024-02-28T03:02:26.562Z,11.90
2024-02-28T03:04:53.907Z,11.13
2024-02-28T03:07:21.270Z,12.80
2024-02-28T03:09:48.658Z,11.68
2024-02-28T03:12:16.042Z,12.57
2024-02-28T03:14:44.740Z,12.30
2024-02-28T03:17:12.119Z,11.45
2024-02-28T03:19:39.780Z,12.05
2024-02-28T03:22:07.238Z,12.85
2024-02-28T03:24:36.459Z,11.15
2024-02-28T03:27:03.969Z,12.48
2024-02-28T03:29:31.300Z,13.25
2024-02-28T03:32:00.247Z,13.82
2024-02-28T03:34:27.690Z,12.67
2024-02-28T03:36:55.113Z,10.82
2024-02-28T03:39:22.596Z,12.25
2024-02-28T03:41:49.950Z,11.70
2024-02-28T03:44:17.315Z,11.50
2024-02-28T03:46:44.680Z,12.15
2024-02-28T03:49:13.387Z,11.05
2024-02-28T03:51:41.759Z,12.23
2024-02-28T03:54:09.893Z,10.27
2024-02-28T03:56:37.308Z,10.93
2024-02-28T03:59:05.234Z,10.52
2024-02-28T04:01:32.923Z,10.95
2024-02-28T04:04:00.420Z,11.90
2024-02-28T04:06:29.215Z,10.73
2024-02-28T04:08:56.583Z,12.07
2024-02-28T04:11:25.145Z,11.88
2024-02-28T04:13:52.543Z,11.98
2024-02-28T04:16:19.960Z,11.85
2024-02-28T04:18:47.375Z,11.68
2024-02-28T04:21:14.776Z,11.88
2024-02-28T04:23:43.030Z,16.20
2024-02-28T04:26:10.676Z,41.45
2024-02-28T04:28:38.057Z,29.83
2024-02-28T04:31:05.435Z,28.33
2024-02-28T04:33:32.870Z,29.15
2024-02-28T04:36:00.264Z,23.48
2024-02-28T04:38:27.618Z,21.40
2024-02-28T04:40:56.353Z,14.57
2024-02-28T04:43:23.710Z,14.88
2024-02-28T04:45:51.151Z,12.63
2024-02-28T04:48:18.588Z,16.50
2024-02-28T04:50:46.021Z,14.85
2024-02-28T04:53:13.417Z,11.75
2024-02-28T04:55:40.892Z,11.45
2024-02-28T04:58:09.577Z,10.25
2024-02-28T05:00:36.998Z,10.68
2024-02-28T05:03:04.614Z,13.35
2024-02-28T05:05:32.012Z,14.30
2024-02-28T05:07:59.378Z,12.35
2024-02-28T05:10:26.799Z,11.68
2024-02-28T05:12:54.284Z,12.10
2024-02-28T05:15:23.929Z,17.73
2024-02-28T05:17:52.190Z,12.02
2024-02-28T05:20:19.647Z,11.05
2024-02-28T05:22:47.007Z,11.00
2024-02-28T05:25:14.369Z,10.90
2024-02-28T05:27:41.741Z,10.32
2024-02-28T05:30:09.588Z,11.45
2024-02-28T05:32:38.326Z,11.27
2024-02-28T05:35:06.097Z,11.60
2024-02-28T05:37:33.470Z,12.50
2024-02-28T05:40:00.846Z,13.70
2024-02-28T05:42:29.822Z,11.90
2024-02-28T05:44:57.227Z,11.32
2024-02-28T05:47:25.806Z,10.48
2024-02-28T05:49:56.918Z,12.27
2024-02-28T05:52:24.289Z,11.95
2024-02-28T05:54:51.667Z,12.10
2024-02-28T05:57:19.112Z,10.75
2024-02-28T05:59:46.551Z,10.95
2024-02-28T06:02:13.946Z,12.32
2024-02-28T06:04:41.408Z,12.75
2024-02-28T06:07:10.457Z,11.75
2024-02-28T06:09:39.144Z,11.93
2024-02-28T06:12:06.732Z,12.63
2024-02-28T06:14:34.094Z,12.27
2024-02-28T06:17:01.785Z,10.88
2024-02-28T06:19:29.275Z,12.00
2024-02-28T06:21:56.714Z,11.30
2024-02-28T06:24:25.473Z,13.38
2024-02-28T06:26:52.936Z,12.32
2024-02-28T06:29:21.449Z,16.27
2024-02-28T06:31:51.841Z,11.88
2024-02-28T06:34:19.624Z,12.40
2024-02-28T06:36:47.144Z,14.00
2024-02-28T06:39:14.768Z,11.30
2024-02-28T06:41:43.472Z,11.00
2024-02-28T06:44:12.297Z,12.48
2024-02-28T06:46:39.676Z,12.15
2024-02-28T06:49:07.062Z,13.57
2024-02-28T06:51:34.454Z,12.52
2024-02-28T06:54:01.785Z,13.00
2024-02-28T06:56:29.170Z,12.77
2024-02-28T06:58:57.859Z,14.77
2024-02-28T07:01:25.307Z,12.27
2024-02-28T07:03:52.857Z,13.30
2024-02-28T07:06:20.574Z,14.25
2024-02-28T07:08:48.015Z,13.88
2024-02-28T07:11:15.550Z,14.23
2024-02-28T07:13:42.944Z,13.50
2024-02-28T07:16:11.615Z,16.50
2024-02-28T07:18:38.993Z,14.38
2024-02-28T07:21:07.902Z,13.50
2024-02-28T07:23:35.278Z,15.20
2024-02-28T07:26:09.430Z,14.73
2024-02-28T07:28:43.831Z,14.23
2024-02-28T07:31:17.861Z,13.57
2024-02-28T07:33:45.420Z,14.10
2024-02-28T07:36:13.091Z,13.00
2024-02-28T07:38:41.866Z,13.52
2024-02-28T07:41:09.265Z,13.25
2024-02-28T07:43:39.144Z,14.32
2024-02-28T07:46:09.018Z,13.00
2024-02-28T07:51:06.110Z,13.30
2024-02-28T07:56:00.720Z,12.32
2024-02-28T07:58:28.102Z,14.50
2024-02-28T08:00:55.535Z,15.18
2024-02-28T08:03:22.969Z,14.32
2024-02-28T08:05:50.575Z,12.20
2024-02-28T08:08:19.239Z,14.93
2024-02-28T08:10:47.923Z,13.80
2024-02-28T08:13:15.400Z,14.93
2024-02-28T08:15:42.767Z,15.85
2024-02-28T08:18:12.246Z,13.43
2024-02-28T08:20:39.623Z,14.00
2024-02-28T08:23:07.443Z,13.63
2024-02-28T08:25:36.176Z,14.07
2024-02-28T08:28:04.466Z,14.70
2024-02-28T08:30:32.100Z,13.50
2024-02-28T08:32:59.665Z,13.55
2024-02-28T08:35:27.859Z,13.05
2024-02-28T08:37:55.257Z,13.50
2024-02-28T08:40:22.639Z,13.50
2024-02-28T08:42:54.312Z,12.85
2024-02-28T08:45:22.016Z,11.27
2024-02-28T08:47:49.489Z,12.57
2024-02-28T08:50:16.935Z,14.13
2024-02-28T08:52:44.366Z,14.13
2024-02-28T08:55:11.766Z,11.30
2024-02-28T08:57:39.236Z,10.10
2024-02-28T09:00:10.082Z,10.90
2024-02-28T09:02:38.055Z,11.25
2024-02-28T09:05:05.770Z,11.30
2024-02-28T09:07:33.141Z,11.57
2024-02-28T09:10:00.707Z,11.05
2024-02-28T09:12:28.198Z,12.18
2024-02-28T09:14:58.647Z,11.93
2024-02-28T09:17:27.533Z,12.27
2024-02-28T09:19:55.187Z,12.02
2024-02-28T09:22:22.898Z,12.10
2024-02-28T09:24:50.483Z,13.82
2024-02-28T09:27:19.299Z,13.30
2024-02-28T09:29:46.816Z,11.43
2024-02-28T09:32:15.754Z,12.75
2024-02-28T09:34:44.504Z,12.68
2024-02-28T09:37:11.908Z,13.70
2024-02-28T09:39:39.890Z,13.63
2024-02-28T09:42:07.910Z,12.90
2024-02-28T09:44:35.924Z,13.40
2024-02-28T09:47:03.368Z,13.55
2024-02-28T09:49:33.055Z,14.45
2024-02-28T09:52:02.904Z,14.15
2024-02-28T09:54:30.645Z,13.77
2024-02-28T09:56:58.059Z,11.82
2024-02-28T09:59:32.304Z,14.50
2024-02-28T10:02:08.112Z,13.55
2024-02-28T10:04:35.931Z,14.63
2024-02-28T10:07:14.865Z,14.15
2024-02-28T10:09:42.431Z,15.02
2024-02-28T10:12:10.010Z,13.80
2024-02-28T10:14:37.386Z,14.40
2024-02-28T10:17:05.149Z,14.43
2024-02-28T10:19:32.803Z,15.40
2024-02-28T10:22:00.939Z,13.43
2024-02-28T10:24:29.898Z,15.30
2024-02-28T10:26:57.669Z,14.70
2024-02-28T10:29:25.953Z,15.63
2024-02-28T10:31:53.519Z,14.98
2024-02-28T10:34:21.024Z,16.15
2024-02-28T10:36:48.810Z,16.25
2024-02-28T10:39:16.400Z,15.50
2024-02-28T10:41:49.911Z,14.63
2024-02-28T10:44:18.566Z,15.18
2024-02-28T10:46:46.578Z,15.88
2024-02-28T10:49:14.109Z,15.10
2024-02-28T10:51:42.034Z,14.85
2024-02-28T10:54:13.631Z,15.38
2024-02-28T10:56:42.427Z,16.08
2024-02-28T10:59:12.716Z,15.20
2024-02-28T11:01:42.851Z,16.13
2024-02-28T11:04:10.826Z,15.95
2024-02-28T11:06:49.374Z,15.35
2024-02-28T11:09:20.816Z,15.20
2024-02-28T11:11:48.291Z,15.02
2024-02-28T11:14:18.445Z,15.57
2024-02-28T11:16:47.500Z,16.05
2024-02-28T11:19:21.306Z,14.38
2024-02-28T11:21:53.597Z,16.33
2024-02-28T11:24:24.427Z,15.15
2024-02-28T11:26:52.667Z,16.13
2024-02-28T11:29:25.956Z,16.17
2024-02-28T11:31:53.433Z,15.23
2024-02-28T11:34:21.593Z,15.93
2024-02-28T11:36:49.996Z,15.35
2024-02-28T11:39:17.691Z,15.15
2024-02-28T11:41:47.175Z,14.32
2024-02-28T11:44:15.490Z,14.05
2024-02-28T11:46:47.639Z,13.98
2024-02-28T11:49:15.055Z,14.27
2024-02-28T11:51:43.524Z,14.13
2024-02-28T11:54:11.957Z,15.63
2024-02-28T11:56:40.551Z,15.00
2024-02-28T11:59:10.561Z,15.65
2024-02-28T12:01:39.018Z,14.45
2024-02-28T12:04:08.457Z,14.70
2024-02-28T12:06:37.387Z,11.68
2024-02-28T12:09:05.203Z,12.13
2024-02-28T12:11:33.520Z,14.60
2024-02-28T12:14:02.285Z,13.30
2024-02-28T12:16:29.686Z,13.93
2024-02-28T12:18:57.151Z,14.40
2024-02-28T12:21:25.949Z,15.13
2024-02-28T12:23:53.382Z,14.70
2024-02-28T12:26:20.971Z,14.68
2024-02-28T12:28:48.349Z,15.10
2024-02-28T12:31:15.852Z,14.80
2024-02-28T12:33:43.768Z,14.65
2024-02-28T12:36:11.269Z,14.48
2024-02-28T12:38:41.573Z,12.88
2024-02-28T12:41:09.096Z,15.77
2024-02-28T12:43:36.488Z,14.18
2024-02-28T12:46:04.082Z,14.80
2024-02-28T12:48:32.319Z,14.93
2024-02-28T12:51:04.778Z,13.75
2024-02-28T12:53:32.182Z,13.38
2024-02-28T12:56:00.916Z,13.95
2024-02-28T12:58:28.526Z,14.63
2024-02-28T13:00:56.080Z,13.13
2024-02-28T13:03:23.689Z,14.55
2024-02-28T13:05:51.405Z,14.05
2024-02-28T13:08:18.801Z,12.23
2024-02-28T13:10:46.192Z,13.30
2024-02-28T13:13:14.937Z,12.85
2024-02-28T13:15:42.464Z,12.35
2024-02-28T13:18:12.029Z,14.20
2024-02-28T13:20:41.028Z,14.00
2024-02-28T13:23:08.576Z,14.18
2024-02-28T13:25:36.044Z,14.10
2024-02-28T13:28:03.584Z,13.27
2024-02-28T13:30:32.422Z,13.15
2024-02-28T13:32:59.908Z,16.20
2024-02-28T13:35:27.504Z,14.70
2024-02-28T13:37:55.724Z,13.43
2024-02-28T13:40:23.205Z,15.48
2024-02-28T13:42:50.664Z,15.43
2024-02-28T13:45:18.218Z,14.68
2024-02-28T13:47:47.049Z,14.90
2024-02-28T13:50:15.156Z,15.15
2024-02-28T13:52:42.572Z,14.82
2024-02-28T13:55:11.185Z,14.43
2024-02-28T13:57:38.991Z,14.65
2024-02-28T14:00:09.478Z,14.57
2024-02-28T14:02:37.064Z,13.02
2024-02-28T14:05:06.252Z,15.98
2024-02-28T14:07:33.757Z,15.23
2024-02-28T14:10:01.191Z,16.65
2024-02-28T14:12:28.701Z,16.73
2024-02-28T14:14:56.149Z,15.05
2024-02-28T14:17:23.643Z,15.75
2024-02-28T14:19:51.021Z,16.10
2024-02-28T14:22:19.933Z,16.58
2024-02-28T14:24:47.303Z,15.07
2024-02-28T14:27:15.952Z,16.15
2024-02-28T14:29:43.414Z,15.93
2024-02-28T14:32:10.902Z,14.57
2024-02-28T14:34:38.320Z,15.50
2024-02-28T14:37:05.939Z,16.13
2024-02-28T14:39:35.273Z,16.13
2024-02-28T14:42:02.667Z,16.02
2024-02-28T14:44:30.113Z,15.88
2024-02-28T14:46:58.304Z,15.70
2024-02-28T14:49:25.697Z,15.30
2024-02-28T14:51:53.418Z,16.10
2024-02-28T14:54:23.853Z,16.25
2024-02-28T14:56:52.674Z,17.27
2024-02-28T14:59:20.131Z,16.88
2024-02-28T15:01:47.663Z,14.77
2024-02-28T15:04:16.620Z,15.93
2024-02-28T15:06:44.172Z,17.03
2024-02-28T15:09:12.303Z,16.73
2024-02-28T15:11:39.954Z,15.73
2024-02-28T15:14:08.819Z,15.50
2024-02-28T15:16:36.242Z,15.30
2024-02-28T15:19:03.702Z,16.77
2024-02-28T15:21:31.179Z,15.93
2024-02-28T15:23:58.611Z,15.88
2024-02-28T15:26:31.832Z,16.00
2024-02-28T15:29:07.249Z,17.58
2024-02-28T15:31:37.371Z,16.73
2024-02-28T15:34:04.823Z,16.20
2024-02-28T15:36:32.435Z,16.88
2024-02-28T15:38:59.927Z,17.25
2024-02-28T15:41:27.475Z,17.23
2024-02-28T15:43:54.891Z,16.15
2024-02-28T15:46:22.362Z,15.77
2024-02-28T15:48:51.091Z,17.40
2024-02-28T15:51:18.533Z,17.35
2024-02-28T15:53:46.560Z,17.02
2024-02-28T15:56:14.306Z,17.98
2024-02-28T15:58:44.611Z,17.00
2024-02-28T16:01:12.636Z,16.67
2024-02-28T16:03:40.068Z,17.17
2024-02-28T16:06:09.702Z,17.58
2024-02-28T16:08:41.219Z,17.10
2024-02-28T16:11:08.679Z,17.63
2024-02-28T16:13:36.089Z,17.70
2024-02-28T16:16:04.123Z,17.85
2024-02-28T16:18:31.555Z,17.73
2024-02-28T16:21:00.530Z,17.52
2024-02-28T16:23:29.394Z,19.63
2024-02-28T16:25:58.973Z,17.47
2024-02-28T16:28:27.363Z,17.35
2024-02-28T16:30:56.176Z,17.43
2024-02-28T16:33:24.377Z,17.27
2024-02-28T16:35:51.861Z,18.52
2024-02-28T16:38:19.297Z,17.85
2024-02-28T16:40:48.038Z,17.80
2024-02-28T16:43:15.441Z,17.92
2024-02-28T16:45:42.934Z,17.42
2024-02-28T16:48:10.705Z,17.77
2024-02-28T16:50:38.140Z,17.20
2024-02-28T16:53:05.820Z,20.05
2024-02-28T16:55:33.212Z,22.05
2024-02-28T16:58:04.110Z,23.02
2024-02-28T17:00:31.588Z,25.23
2024-02-28T17:02:58.956Z,25.55
2024-02-28T17:05:26.360Z,24.85
2024-02-28T17:07:54.077Z,22.73
2024-02-28T17:10:21.425Z,23.13
2024-02-28T17:12:48.817Z,23.98
2024-02-28T17:15:17.982Z,23.35
2024-02-28T17:17:45.413Z,23.77
2024-02-28T17:20:12.809Z,23.33
2024-02-28T17:22:40.147Z,24.27
2024-02-28T17:25:08.054Z,22.27
2024-02-28T17:27:35.501Z,22.67
2024-02-28T17:30:05.173Z,24.77
2024-02-28T17:32:33.936Z,24.63
2024-02-28T17:35:04.864Z,35.03
2024-02-28T17:37:32.230Z,28.80
2024-02-28T17:39:59.631Z,25.67
2024-02-28T17:42:26.990Z,27.60
2024-02-28T17:44:54.638Z,22.45
2024-02-28T17:47:22.061Z,24.80
2024-02-28T17:49:50.794Z,22.38
2024-02-28T17:52:18.133Z,24.63
2024-02-28T17:54:45.578Z,24.23
2024-02-28T17:57:12.460Z,23.55
2024-02-28T17:59:40.309Z,23.40
2024-02-28T18:02:08.610Z,24.00
2024-02-28T18:04:36.005Z,23.23
2024-02-28T18:07:04.882Z,22.35
2024-02-28T18:09:32.354Z,22.57
2024-02-28T18:12:00.183Z,22.65
2024-02-28T18:14:27.713Z,21.67
2024-02-28T18:16:55.272Z,22.80
2024-02-28T18:19:23.341Z,23.17
2024-02-28T18:21:50.791Z,22.10
2024-02-28T18:24:19.558Z,22.80
2024-02-28T18:26:46.909Z,22.20
2024-02-28T18:29:14.289Z,20.90
2024-02-28T18:31:41.674Z,22.00
2024-02-28T18:34:09.527Z,23.13
2024-02-28T18:36:36.990Z,21.70
2024-02-28T18:39:05.420Z,22.02
2024-02-28T18:41:34.101Z,20.52
2024-02-28T18:44:01.440Z,21.38
2024-02-28T18:46:28.997Z,20.65
2024-02-28T18:48:56.423Z,18.92
2024-02-28T18:51:23.873Z,40.17
2024-02-28T18:53:51.303Z,45.63
2024-02-28T18:56:18.676Z,28.33
2024-02-28T18:58:47.417Z,21.48
2024-02-28T19:01:18.406Z,20.58
2024-02-28T19:03:47.203Z,22.88
2024-02-28T19:06:15.271Z,22.02
2024-02-28T19:08:42.663Z,20.15
2024-02-28T19:11:10.036Z,22.73
2024-02-28T19:13:37.449Z,22.15
2024-02-28T19:16:06.648Z,20.95
2024-02-28T19:18:36.788Z,21.02
2024-02-28T19:21:04.250Z,22.40
2024-02-28T19:23:31.867Z,20.55
2024-02-28T19:25:59.258Z,22.90
2024-02-28T19:28:26.617Z,21.65
2024-02-28T19:30:54.014Z,23.73
2024-02-28T19:33:23.118Z,37.22
2024-02-28T19:35:50.522Z,29.52
2024-02-28T19:38:17.872Z,29.98
2024-02-28T19:40:45.585Z,25.70
2024-02-28T19:43:13.034Z,23.85
2024-02-28T19:45:40.689Z,24.20
2024-02-28T19:48:08.452Z,22.17
2024-02-28T19:50:37.356Z,24.25
2024-02-28T19:53:05.304Z,22.73
2024-02-28T19:55:32.901Z,23.95
2024-02-28T19:58:00.348Z,18.17
2024-02-28T20:00:27.859Z,16.17
2024-02-28T20:02:55.780Z,17.27
2024-02-28T20:05:23.143Z,16.80
2024-02-28T20:07:51.876Z,17.52
2024-02-28T20:10:19.463Z,15.00
2024-02-28T20:12:47.024Z,15.30
2024-02-28T20:15:14.749Z,15.70
2024-02-28T20:17:42.197Z,15.55
2024-02-28T20:20:10.022Z,13.05
2024-02-28T20:22:37.368Z,13.07
2024-02-28T20:25:07.487Z,14.18
2024-02-28T20:27:35.032Z,13.75
2024-02-28T20:30:02.470Z,14.45
2024-02-28T20:32:29.867Z,13.40
2024-02-28T20:34:57.248Z,13.00
2024-02-28T20:37:24.630Z,13.32
2024-02-28T20:39:52.238Z,13.23
2024-02-28T20:42:20.945Z,13.75
2024-02-28T20:44:48.288Z,14.43
2024-02-28T20:47:15.687Z,13.93
2024-02-28T20:49:43.863Z,14.20
2024-02-28T20:52:11.309Z,19.15
2024-02-28T20:54:38.725Z,16.88
2024-02-28T20:57:12.654Z,14.10
2024-02-28T20:59:45.741Z,15.85
2024-02-28T21:02:13.588Z,15.60
2024-02-28T21:04:42.396Z,14.38
2024-02-28T21:07:09.957Z,15.00
2024-02-28T21:09:37.410Z,14.93
2024-02-28T21:12:05.485Z,12.95
2024-02-28T21:14:32.929Z,12.30
2024-02-28T21:17:01.645Z,13.20
2024-02-28T21:19:30.064Z,13.90
2024-02-28T21:21:57.452Z,13.90
2024-02-28T21:24:24.837Z,14.45
2024-02-28T21:26:52.254Z,14.65
2024-02-28T21:29:19.657Z,14.00
2024-02-28T21:31:46.992Z,12.73
2024-02-28T21:34:15.701Z,13.30
2024-02-28T21:36:43.195Z,12.98
2024-02-28T21:39:11.461Z,14.48
2024-02-28T21:41:38.851Z,13.90
2024-02-28T21:44:06.220Z,13.93
2024-02-28T21:46:33.608Z,13.30
2024-02-28T21:49:06.393Z,13.23
2024-02-28T21:51:41.786Z,12.57
2024-02-28T21:54:09.236Z,12.15
2024-02-28T21:56:38.732Z,12.48
2024-02-28T21:59:06.173Z,13.05
2024-02-28T22:01:33.648Z,12.20
2024-02-28T22:04:01.490Z,12.38
2024-02-28T22:06:30.547Z,12.90
2024-02-28T22:09:01.031Z,12.45
2024-02-28T22:11:28.681Z,13.00
2024-02-28T22:13:56.155Z,12.55
2024-02-28T22:16:23.591Z,11.77
2024-02-28T22:18:51.671Z,12.70
2024-02-28T22:21:19.210Z,12.02
2024-02-28T22:23:46.558Z,13.15
2024-02-28T22:26:15.440Z,11.98
2024-02-28T22:28:42.794Z,12.97
2024-02-28T22:31:10.605Z,12.32
2024-02-28T22:33:38.276Z,13.60
2024-02-28T22:36:09.107Z,13.02
2024-02-28T22:38:36.493Z,12.38
2024-02-28T22:41:03.954Z,12.82
2024-02-28T22:43:32.679Z,10.90
2024-02-28T22:46:00.059Z,12.77
2024-02-28T22:48:27.868Z,11.95
2024-02-28T22:50:55.229Z,12.27
2024-02-28T22:53:22.589Z,12.55
2024-02-28T22:55:50.118Z,11.40
2024-02-28T22:58:18.551Z,12.75
2024-02-28T23:00:48.439Z,10.50
2024-02-28T23:03:16.009Z,11.55
2024-02-28T23:05:43.438Z,12.25
2024-02-28T23:08:10.903Z,12.10
2024-02-28T23:10:38.280Z,11.23
2024-02-28T23:13:05.973Z,9.68
2024-02-28T23:15:34.316Z,10.02
2024-02-28T23:18:03.101Z,9.90
2024-02-28T23:20:34.890Z,10.43
2024-02-28T23:23:02.713Z,10.50
2024-02-28T23:25:30.411Z,10.48
2024-02-28T23:27:58.384Z,9.80
2024-02-28T23:30:25.866Z,9.32
2024-02-28T23:32:53.247Z,9.73
2024-02-28T23:35:22.155Z,9.70
2024-02-28T23:37:49.508Z,9.90
2024-02-28T23:40:17.267Z,9.02
2024-02-28T23:42:44.828Z,8.48
2024-02-28T23:45:12.240Z,9.45
2024-02-28T23:47:39.660Z,9.65
2024-02-28T23:50:07.400Z,9.88
2024-02-28T23:52:36.794Z,9.88
2024-02-28T23:55:04.304Z,9.15
2024-02-28T23:57:31.747Z,7.65
2024-02-28T23:59:59.143Z,7.65
